sensor_id;sensor_type;location;lat;lon;timestamp;pressure;altitude;pressure_sealevel;temperature;humidity
58239;BME280;44037;55.638;37.356;2023-05-25T00:00:58;99137.38;;;16.39;100.00
58239;BME280;44037;55.638;37.356;2023-05-25T00:03:25;99146.91;;;16.41;100.00
58239;BME280;44037;55.638;37.356;2023-05-25T00:05:52;99139.06;;;16.41;100.00
58239;BME280;44037;55.638;37.356;2023-05-25T00:08:19;99139.06;;;16.41;100.00
58239;BME280;44037;55.638;37.356;2023-05-25T00:10:47;99135.59;;;16.41;100.00
58239;BME280;44037;55.638;37.356;2023-05-25T00:13:14;99134.69;;;16.42;100.00
58239;BME280;44037;55.638;37.356;2023-05-25T00:15:41;99132.91;;;16.44;100.00
58239;BME280;44037;55.638;37.356;2023-05-25T00:18:10;99138.94;;;16.46;100.00
58239;BME280;44037;55.638;37.356;2023-05-25T00:20:37;99132.75;;;16.50;100.00
58239;BME280;44037;55.638;37.356;2023-05-25T00:23:05;99136.16;;;16.54;100.00
58239;BME280;44037;55.638;37.356;2023-05-25T00:25:32;99133.47;;;16.57;100.00
58239;BME280;44037;55.638;37.356;2023-05-25T00:27:59;99136.09;;;16.57;100.00
58239;BME280;44037;55.638;37.356;2023-05-25T00:30:29;99129.13;;;16.56;100.00
58239;BME280;44037;55.638;37.356;2023-05-25T00:32:56;99132.66;;;16.55;100.00
58239;BME280;44037;55.638;37.356;2023-05-25T00:35:26;99128.28;;;16.55;100.00
58239;BME280;44037;55.638;37.356;2023-05-25T00:37:53;99128.31;;;16.54;100.00
58239;BME280;44037;55.638;37.356;2023-05-25T00:40:20;99127.47;;;16.52;100.00
58239;BME280;44037;55.638;37.356;2023-05-25T00:42:48;99131.00;;;16.51;100.00
58239;BME280;44037;55.638;37.356;2023-05-25T00:45:15;99131.91;;;16.50;100.00
58239;BME280;44037;55.638;37.356;2023-05-25T00:47:43;99131.00;;;16.51;100.00
58239;BME280;44037;55.638;37.356;2023-05-25T00:50:13;99116.25;;;16.48;100.00
58239;BME280;44037;55.638;37.356;2023-05-25T00:52:43;99111.13;;;16.43;100.00
58239;BME280;44037;55.638;37.356;2023-05-25T00:55:11;99107.75;;;16.38;100.00
58239;BME280;44037;55.638;37.356;2023-05-25T00:57:48;99097.56;;;16.27;100.00
58239;BME280;44037;55.638;37.356;2023-05-25T01:00:17;99092.56;;;16.17;100.00
58239;BME280;44037;55.638;37.356;2023-05-25T01:02:46;99096.28;;;16.06;100.00
58239;BME280;44037;55.638;37.356;2023-05-25T01:05:17;99090.31;;;16.00;100.00
58239;BME280;44037;55.638;37.356;2023-05-25T01:07:48;99081.72;;;15.96;100.00
58239;BME280;44037;55.638;37.356;2023-05-25T01:10:20;99078.25;;;15.94;100.00
58239;BME280;44037;55.638;37.356;2023-05-25T01:12:50;99075.66;;;15.94;100.00
58239;BME280;44037;55.638;37.356;2023-05-25T01:15:19;99070.38;;;15.95;100.00
58239;BME280;44037;55.638;37.356;2023-05-25T01:17:48;99078.19;;;15.97;100.00
58239;BME280;44037;55.638;37.356;2023-05-25T01:20:19;99066.84;;;15.98;100.00
58239;BME280;44037;55.638;37.356;2023-05-25T01:22:51;99063.34;;;15.99;100.00
58239;BME280;44037;55.638;37.356;2023-05-25T01:25:23;99069.31;;;16.04;100.00
58239;BME280;44037;55.638;37.356;2023-05-25T01:27:54;99069.25;;;16.07;100.00
58239;BME280;44037;55.638;37.356;2023-05-25T01:30:25;99078.75;;;16.11;100.00
58239;BME280;44037;55.638;37.356;2023-05-25T01:32:52;99076.00;;;16.18;100.00
58239;BME280;44037;55.638;37.356;2023-05-25T01:35:21;99077.59;;;16.23;100.00
58239;BME280;44037;55.638;37.356;2023-05-25T01:37:51;99068.81;;;16.27;100.00
58239;BME280;44037;55.638;37.356;2023-05-25T01:40:18;99073.84;;;16.35;100.00
58239;BME280;44037;55.638;37.356;2023-05-25T01:42:47;99075.47;;;16.41;100.00
58239;BME280;44037;55.638;37.356;2023-05-25T01:45:14;99073.63;;;16.45;100.00
58239;BME280;44037;55.638;37.356;2023-05-25T01:47:47;99065.72;;;16.48;100.00
58239;BME280;44037;55.638;37.356;2023-05-25T01:50:23;99077.81;;;16.52;100.00
58239;BME280;44037;55.638;37.356;2023-05-25T01:52:58;99080.34;;;16.55;100.00
58239;BME280;44037;55.638;37.356;2023-05-25T01:55:30;99087.22;;;16.59;100.00
58239;BME280;44037;55.638;37.356;2023-05-25T01:57:59;99081.88;;;16.64;100.00
58239;BME280;44037;55.638;37.356;2023-05-25T02:00:29;99077.41;;;16.69;100.00
58239;BME280;44037;55.638;37.356;2023-05-25T02:02:57;99078.91;;;16.78;100.00
58239;BME280;44037;55.638;37.356;2023-05-25T02:05:25;99087.47;;;16.84;100.00
58239;BME280;44037;55.638;37.356;2023-05-25T02:07:54;99080.31;;;16.91;100.00
58239;BME280;44037;55.638;37.356;2023-05-25T02:10:21;99085.44;;;16.97;100.00
58239;BME280;44037;55.638;37.356;2023-05-25T02:12:49;99077.41;;;17.05;100.00
58239;BME280;44037;55.638;37.356;2023-05-25T02:15:17;99085.75;;;17.18;100.00
58239;BME280;44037;55.638;37.356;2023-05-25T02:17:44;99082.81;;;17.30;100.00
58239;BME280;44037;55.638;37.356;2023-05-25T02:20:31;99091.03;;;17.49;100.00
58239;BME280;44037;55.638;37.356;2023-05-25T02:22:59;99090.53;;;17.66;100.00
58239;BME280;44037;55.638;37.356;2023-05-25T02:25:27;99104.06;;;17.83;100.00
58239;BME280;44037;55.638;37.356;2023-05-25T02:27:54;99099.28;;;17.97;100.00
58239;BME280;44037;55.638;37.356;2023-05-25T02:30:22;99110.22;;;18.11;100.00
58239;BME280;44037;55.638;37.356;2023-05-25T02:32:49;99114.25;;;18.23;100.00
58239;BME280;44037;55.638;37.356;2023-05-25T02:35:16;99113.91;;;18.34;100.00
58239;BME280;44037;55.638;37.356;2023-05-25T02:37:43;99115.47;;;18.40;100.00
58239;BME280;44037;55.638;37.356;2023-05-25T02:40:13;99120.69;;;18.41;100.00
58239;BME280;44037;55.638;37.356;2023-05-25T02:42:40;99116.91;;;18.50;100.00
58239;BME280;44037;55.638;37.356;2023-05-25T02:45:08;99113.09;;;18.61;100.00
58239;BME280;44037;55.638;37.356;2023-05-25T02:47:36;99108.50;;;18.67;100.00
58239;BME280;44037;55.638;37.356;2023-05-25T02:50:04;99096.06;;;18.72;100.00
58239;BME280;44037;55.638;37.356;2023-05-25T02:52:32;99100.56;;;18.69;100.00
58239;BME280;44037;55.638;37.356;2023-05-25T02:54:59;99114.72;;;18.65;100.00
58239;BME280;44037;55.638;37.356;2023-05-25T02:57:28;99116.63;;;18.60;100.00
58239;BME280;44037;55.638;37.356;2023-05-25T02:59:55;99120.88;;;18.64;100.00
58239;BME280;44037;55.638;37.356;2023-05-25T03:02:22;99120.34;;;18.79;100.00
58239;BME280;44037;55.638;37.356;2023-05-25T03:04:50;99127.66;;;18.98;100.00
58239;BME280;44037;55.638;37.356;2023-05-25T03:07:18;99124.44;;;19.15;100.00
58239;BME280;44037;55.638;37.356;2023-05-25T03:09:46;99125.00;;;19.25;100.00
58239;BME280;44037;55.638;37.356;2023-05-25T03:12:13;99120.38;;;19.31;100.00
58239;BME280;44037;55.638;37.356;2023-05-25T03:14:41;99119.31;;;19.37;100.00
58239;BME280;44037;55.638;37.356;2023-05-25T03:17:08;99122.94;;;19.33;100.00
58239;BME280;44037;55.638;37.356;2023-05-25T03:19:36;99133.53;;;19.30;100.00
58239;BME280;44037;55.638;37.356;2023-05-25T03:22:03;99124.75;;;19.31;100.00
58239;BME280;44037;55.638;37.356;2023-05-25T03:24:30;99133.19;;;19.41;100.00
58239;BME280;44037;55.638;37.356;2023-05-25T03:26:57;99133.66;;;19.52;100.00
58239;BME280;44037;55.638;37.356;2023-05-25T03:29:25;99132.94;;;19.72;100.00
58239;BME280;44037;55.638;37.356;2023-05-25T03:31:54;99134.94;;;19.91;100.00
58239;BME280;44037;55.638;37.356;2023-05-25T03:34:21;99132.63;;;20.05;100.00
58239;BME280;44037;55.638;37.356;2023-05-25T03:36:49;99126.78;;;20.21;100.00
58239;BME280;44037;55.638;37.356;2023-05-25T03:39:16;99117.38;;;20.37;100.00
58239;BME280;44037;55.638;37.356;2023-05-25T03:41:43;99113.22;;;20.54;100.00
58239;BME280;44037;55.638;37.356;2023-05-25T03:44:10;99110.25;;;20.62;100.00
58239;BME280;44037;55.638;37.356;2023-05-25T03:46:37;99115.47;;;20.63;100.00
58239;BME280;44037;55.638;37.356;2023-05-25T03:49:06;99114.41;;;20.67;100.00
58239;BME280;44037;55.638;37.356;2023-05-25T03:51:38;99115.91;;;20.75;100.00
58239;BME280;44037;55.638;37.356;2023-05-25T03:54:06;99118.25;;;20.82;100.00
58239;BME280;44037;55.638;37.356;2023-05-25T03:56:33;99113.25;;;20.97;100.00
58239;BME280;44037;55.638;37.356;2023-05-25T03:59:00;99105.47;;;21.14;100.00
58239;BME280;44037;55.638;37.356;2023-05-25T04:01:27;99102.25;;;21.28;99.21
58239;BME280;44037;55.638;37.356;2023-05-25T04:03:55;99100.38;;;21.30;97.12
58239;BME280;44037;55.638;37.356;2023-05-25T04:06:23;99102.97;;;21.32;95.97
58239;BME280;44037;55.638;37.356;2023-05-25T04:08:51;99101.78;;;21.39;96.34
58239;BME280;44037;55.638;37.356;2023-05-25T04:11:18;99103.72;;;21.55;96.05
58239;BME280;44037;55.638;37.356;2023-05-25T04:13:47;99094.59;;;21.63;95.51
58239;BME280;44037;55.638;37.356;2023-05-25T04:16:15;99096.94;;;21.70;95.12
58239;BME280;44037;55.638;37.356;2023-05-25T04:18:42;99096.00;;;21.71;94.85
58239;BME280;44037;55.638;37.356;2023-05-25T04:21:09;99089.03;;;21.70;93.90
58239;BME280;44037;55.638;37.356;2023-05-25T04:23:38;99104.00;;;21.69;93.84
58239;BME280;44037;55.638;37.356;2023-05-25T04:26:05;99093.47;;;21.69;93.27
58239;BME280;44037;55.638;37.356;2023-05-25T04:28:34;99095.31;;;21.67;92.58
58239;BME280;44037;55.638;37.356;2023-05-25T04:31:02;99093.44;;;21.48;91.86
58239;BME280;44037;55.638;37.356;2023-05-25T04:33:29;99097.03;;;21.27;91.60
58239;BME280;44037;55.638;37.356;2023-05-25T04:35:57;99090.78;;;21.09;91.69
58239;BME280;44037;55.638;37.356;2023-05-25T04:38:24;99088.38;;;21.04;92.35
58239;BME280;44037;55.638;37.356;2023-05-25T04:40:53;99092.19;;;21.17;92.95
58239;BME280;44037;55.638;37.356;2023-05-25T04:43:21;99082.81;;;21.31;92.40
58239;BME280;44037;55.638;37.356;2023-05-25T04:45:51;99093.53;;;21.47;92.51
58239;BME280;44037;55.638;37.356;2023-05-25T04:48:19;99094.66;;;21.62;91.82
58239;BME280;44037;55.638;37.356;2023-05-25T04:50:46;99096.31;;;21.65;90.21
58239;BME280;44037;55.638;37.356;2023-05-25T04:53:13;99087.69;;;21.61;90.32
58239;BME280;44037;55.638;37.356;2023-05-25T04:55:40;99080.63;;;21.61;90.99
58239;BME280;44037;55.638;37.356;2023-05-25T04:58:09;99090.88;;;21.68;90.48
58239;BME280;44037;55.638;37.356;2023-05-25T05:00:37;99089.94;;;21.69;90.02
58239;BME280;44037;55.638;37.356;2023-05-25T05:03:05;99086.47;;;21.68;89.56
58239;BME280;44037;55.638;37.356;2023-05-25T05:05:33;99096.31;;;21.65;88.44
58239;BME280;44037;55.638;37.356;2023-05-25T05:08:00;99081.94;;;21.51;87.49
58239;BME280;44037;55.638;37.356;2023-05-25T05:10:28;99087.75;;;21.39;88.36
58239;BME280;44037;55.638;37.356;2023-05-25T05:12:55;99088.88;;;21.33;88.42
58239;BME280;44037;55.638;37.356;2023-05-25T05:15:23;99090.66;;;21.32;88.97
58239;BME280;44037;55.638;37.356;2023-05-25T05:17:52;99097.84;;;21.29;89.12
58239;BME280;44037;55.638;37.356;2023-05-25T05:20:20;99090.25;;;21.21;89.27
58239;BME280;44037;55.638;37.356;2023-05-25T05:22:47;99089.47;;;21.19;89.18
58239;BME280;44037;55.638;37.356;2023-05-25T05:25:14;99088.44;;;21.23;89.34
58239;BME280;44037;55.638;37.356;2023-05-25T05:27:42;99093.56;;;21.26;88.14
58239;BME280;44037;55.638;37.356;2023-05-25T05:30:10;99087.50;;;21.24;88.23
58239;BME280;44037;55.638;37.356;2023-05-25T05:32:39;99088.00;;;21.32;88.88
58239;BME280;44037;55.638;37.356;2023-05-25T05:35:06;99087.03;;;21.35;88.22
58239;BME280;44037;55.638;37.356;2023-05-25T05:37:34;99082.63;;;21.36;88.23
58239;BME280;44037;55.638;37.356;2023-05-25T05:40:01;99089.31;;;21.43;88.66
58239;BME280;44037;55.638;37.356;2023-05-25T05:42:30;99094.44;;;21.46;88.37
58239;BME280;44037;55.638;37.356;2023-05-25T05:44:57;99090.91;;;21.47;88.66
58239;BME280;44037;55.638;37.356;2023-05-25T05:47:24;99094.25;;;21.51;89.35
58239;BME280;44037;55.638;37.356;2023-05-25T05:49:53;99087.09;;;21.54;89.64
58239;BME280;44037;55.638;37.356;2023-05-25T05:52:20;99094.81;;;21.57;88.92
58239;BME280;44037;55.638;37.356;2023-05-25T05:54:47;99089.50;;;21.59;89.00
58239;BME280;44037;55.638;37.356;2023-05-25T05:57:14;99092.19;;;21.57;88.61
58239;BME280;44037;55.638;37.356;2023-05-25T05:59:41;99092.13;;;21.59;88.66
58239;BME280;44037;55.638;37.356;2023-05-25T06:02:08;99094.31;;;21.70;89.12
58239;BME280;44037;55.638;37.356;2023-05-25T06:04:36;99096.25;;;21.85;88.43
58239;BME280;44037;55.638;37.356;2023-05-25T06:07:04;99092.81;;;22.02;88.02
58239;BME280;44037;55.638;37.356;2023-05-25T06:09:31;99086.91;;;22.16;87.91
58239;BME280;44037;55.638;37.356;2023-05-25T06:11:59;99082.19;;;22.23;86.80
58239;BME280;44037;55.638;37.356;2023-05-25T06:14:26;99091.19;;;22.19;86.12
58239;BME280;44037;55.638;37.356;2023-05-25T06:16:53;99093.16;;;22.14;86.21
58239;BME280;44037;55.638;37.356;2023-05-25T06:19:20;99090.75;;;22.09;87.20
58239;BME280;44037;55.638;37.356;2023-05-25T06:21:47;99086.47;;;22.06;87.06
58239;BME280;44037;55.638;37.356;2023-05-25T06:24:16;99091.06;;;22.03;86.38
58239;BME280;44037;55.638;37.356;2023-05-25T06:26:43;99092.03;;;22.00;86.98
58239;BME280;44037;55.638;37.356;2023-05-25T06:29:10;99079.72;;;22.01;87.37
58239;BME280;44037;55.638;37.356;2023-05-25T06:31:37;99085.69;;;22.04;87.05
58239;BME280;44037;55.638;37.356;2023-05-25T06:34:04;99076.63;;;22.10;86.74
58239;BME280;44037;55.638;37.356;2023-05-25T06:36:32;99080.06;;;22.12;86.62
58239;BME280;44037;55.638;37.356;2023-05-25T06:38:59;99075.47;;;22.16;86.79
58239;BME280;44037;55.638;37.356;2023-05-25T06:41:27;99082.25;;;22.21;86.60
58239;BME280;44037;55.638;37.356;2023-05-25T06:43:55;99076.03;;;22.22;86.15
58239;BME280;44037;55.638;37.356;2023-05-25T06:46:22;99079.75;;;22.18;85.89
58239;BME280;44037;55.638;37.356;2023-05-25T06:48:49;99074.47;;;22.18;86.99
58239;BME280;44037;55.638;37.356;2023-05-25T06:51:17;99075.69;;;22.30;87.28
58239;BME280;44037;55.638;37.356;2023-05-25T06:53:44;99074.28;;;22.42;86.79
58239;BME280;44037;55.638;37.356;2023-05-25T06:56:11;99082.44;;;22.55;85.57
58239;BME280;44037;55.638;37.356;2023-05-25T06:58:40;99074.13;;;22.63;84.59
58239;BME280;44037;55.638;37.356;2023-05-25T07:01:07;99077.19;;;22.73;84.87
58239;BME280;44037;55.638;37.356;2023-05-25T07:03:34;99078.66;;;22.78;83.17
58239;BME280;44037;55.638;37.356;2023-05-25T07:06:03;99080.66;;;22.73;83.17
58239;BME280;44037;55.638;37.356;2023-05-25T07:08:30;99086.09;;;22.70;83.08
58239;BME280;44037;55.638;37.356;2023-05-25T07:10:57;99083.44;;;22.70;83.63
58239;BME280;44037;55.638;37.356;2023-05-25T07:13:25;99084.38;;;22.69;83.38
58239;BME280;44037;55.638;37.356;2023-05-25T07:15:53;99082.19;;;22.60;83.57
58239;BME280;44037;55.638;37.356;2023-05-25T07:18:21;99083.59;;;22.49;84.01
58239;BME280;44037;55.638;37.356;2023-05-25T07:20:48;99078.75;;;22.40;83.52
58239;BME280;44037;55.638;37.356;2023-05-25T07:23:16;99080.13;;;22.30;83.34
58239;BME280;44037;55.638;37.356;2023-05-25T07:25:43;99075.78;;;22.09;83.61
58239;BME280;44037;55.638;37.356;2023-05-25T07:28:10;99079.06;;;21.96;84.50
58239;BME280;44037;55.638;37.356;2023-05-25T07:30:38;99072.72;;;21.81;85.11
58239;BME280;44037;55.638;37.356;2023-05-25T07:33:07;99076.94;;;21.66;86.05
58239;BME280;44037;55.638;37.356;2023-05-25T07:35:34;99088.00;;;21.53;86.56
58239;BME280;44037;55.638;37.356;2023-05-25T07:38:02;99082.41;;;21.40;87.04
58239;BME280;44037;55.638;37.356;2023-05-25T07:40:30;99078.19;;;21.36;87.47
58239;BME280;44037;55.638;37.356;2023-05-25T07:42:57;99087.09;;;21.33;87.69
58239;BME280;44037;55.638;37.356;2023-05-25T07:45:24;99092.50;;;21.30;87.99
58239;BME280;44037;55.638;37.356;2023-05-25T07:47:51;99083.94;;;21.25;88.26
58239;BME280;44037;55.638;37.356;2023-05-25T07:50:20;99077.03;;;21.23;88.91
58239;BME280;44037;55.638;37.356;2023-05-25T07:52:48;99072.63;;;21.23;89.03
58239;BME280;44037;55.638;37.356;2023-05-25T07:55:15;99078.22;;;21.15;88.92
58239;BME280;44037;55.638;37.356;2023-05-25T07:57:43;99082.31;;;21.02;89.32
58239;BME280;44037;55.638;37.356;2023-05-25T08:00:11;99088.03;;;20.91;90.42
58239;BME280;44037;55.638;37.356;2023-05-25T08:02:39;99087.38;;;20.86;91.71
58239;BME280;44037;55.638;37.356;2023-05-25T08:05:08;99081.31;;;20.84;92.21
58239;BME280;44037;55.638;37.356;2023-05-25T08:07:36;99077.25;;;20.77;92.33
58239;BME280;44037;55.638;37.356;2023-05-25T08:10:04;99079.44;;;20.65;92.96
58239;BME280;44037;55.638;37.356;2023-05-25T08:12:33;99081.50;;;20.57;93.37
58239;BME280;44037;55.638;37.356;2023-05-25T08:15:00;99087.38;;;20.41;94.00
58239;BME280;44037;55.638;37.356;2023-05-25T08:17:32;99086.91;;;20.32;94.42
58239;BME280;44037;55.638;37.356;2023-05-25T08:20:00;99086.41;;;20.22;95.17
58239;BME280;44037;55.638;37.356;2023-05-25T08:22:31;99094.59;;;20.14;96.25
58239;BME280;44037;55.638;37.356;2023-05-25T08:24:59;99090.44;;;20.08;97.12
58239;BME280;44037;55.638;37.356;2023-05-25T08:27:27;99100.44;;;19.99;97.45
58239;BME280;44037;55.638;37.356;2023-05-25T08:29:54;99097.59;;;19.81;97.75
58239;BME280;44037;55.638;37.356;2023-05-25T08:32:21;99100.88;;;19.62;98.48
58239;BME280;44037;55.638;37.356;2023-05-25T08:34:48;99104.03;;;19.48;99.85
58239;BME280;44037;55.638;37.356;2023-05-25T08:37:16;99112.25;;;19.39;100.00
58239;BME280;44037;55.638;37.356;2023-05-25T08:39:44;99107.41;;;19.27;100.00
58239;BME280;44037;55.638;37.356;2023-05-25T08:42:13;99109.19;;;19.01;100.00
58239;BME280;44037;55.638;37.356;2023-05-25T08:44:40;99106.50;;;18.47;100.00
58239;BME280;44037;55.638;37.356;2023-05-25T08:47:07;99113.25;;;17.96;100.00
58239;BME280;44037;55.638;37.356;2023-05-25T08:49:37;99104.88;;;17.53;100.00
58239;BME280;44037;55.638;37.356;2023-05-25T08:52:09;99116.22;;;17.20;100.00
58239;BME280;44037;55.638;37.356;2023-05-25T08:54:37;99114.25;;;16.96;100.00
58239;BME280;44037;55.638;37.356;2023-05-25T08:57:18;99112.19;;;16.72;100.00
58239;BME280;44037;55.638;37.356;2023-05-25T08:59:50;99117.59;;;16.65;100.00
58239;BME280;44037;55.638;37.356;2023-05-25T09:02:28;99111.72;;;16.56;100.00
58239;BME280;44037;55.638;37.356;2023-05-25T09:04:58;99097.81;;;16.53;100.00
58239;BME280;44037;55.638;37.356;2023-05-25T09:07:26;99103.22;;;16.47;100.00
58239;BME280;44037;55.638;37.356;2023-05-25T09:09:54;99104.97;;;16.46;100.00
58239;BME280;44037;55.638;37.356;2023-05-25T09:12:22;99123.16;;;16.51;100.00
58239;BME280;44037;55.638;37.356;2023-05-25T09:14:51;99127.31;;;16.59;100.00
58239;BME280;44037;55.638;37.356;2023-05-25T09:17:19;99109.56;;;16.72;100.00
58239;BME280;44037;55.638;37.356;2023-05-25T09:19:46;99114.34;;;16.91;100.00
58239;BME280;44037;55.638;37.356;2023-05-25T09:22:13;99093.00;;;17.08;100.00
58239;BME280;44037;55.638;37.356;2023-05-25T09:24:41;99099.59;;;17.23;100.00
58239;BME280;44037;55.638;37.356;2023-05-25T09:27:10;99094.94;;;17.34;100.00
58239;BME280;44037;55.638;37.356;2023-05-25T09:29:40;99093.97;;;17.39;100.00
58239;BME280;44037;55.638;37.356;2023-05-25T09:32:07;99099.09;;;17.42;100.00
58239;BME280;44037;55.638;37.356;2023-05-25T09:34:34;99092.13;;;17.41;100.00
58239;BME280;44037;55.638;37.356;2023-05-25T09:37:02;99106.03;;;17.43;100.00
58239;BME280;44037;55.638;37.356;2023-05-25T09:39:29;99101.63;;;17.45;100.00
58239;BME280;44037;55.638;37.356;2023-05-25T09:41:57;99098.09;;;17.46;100.00
58239;BME280;44037;55.638;37.356;2023-05-25T09:44:24;99100.47;;;17.55;100.00
58239;BME280;44037;55.638;37.356;2023-05-25T09:46:54;99095.69;;;17.70;100.00
58239;BME280;44037;55.638;37.356;2023-05-25T09:49:22;99096.06;;;17.87;100.00
58239;BME280;44037;55.638;37.356;2023-05-25T09:51:49;99090.63;;;17.93;100.00
58239;BME280;44037;55.638;37.356;2023-05-25T09:54:16;99086.28;;;17.92;100.00
58239;BME280;44037;55.638;37.356;2023-05-25T09:56:44;99090.72;;;17.90;100.00
58239;BME280;44037;55.638;37.356;2023-05-25T09:59:11;99093.34;;;17.90;100.00
58239;BME280;44037;55.638;37.356;2023-05-25T10:01:39;99096.75;;;17.94;100.00
58239;BME280;44037;55.638;37.356;2023-05-25T10:04:08;99094.88;;;17.99;100.00
58239;BME280;44037;55.638;37.356;2023-05-25T10:06:37;99087.50;;;18.12;100.00
58239;BME280;44037;55.638;37.356;2023-05-25T10:09:05;99085.16;;;18.31;100.00
58239;BME280;44037;55.638;37.356;2023-05-25T10:11:35;99083.91;;;18.43;100.00
58239;BME280;44037;55.638;37.356;2023-05-25T10:14:06;99093.19;;;18.53;100.00
58239;BME280;44037;55.638;37.356;2023-05-25T10:16:33;99090.56;;;18.53;100.00
58239;BME280;44037;55.638;37.356;2023-05-25T10:19:05;99090.78;;;18.47;100.00
58239;BME280;44037;55.638;37.356;2023-05-25T10:21:35;99089.88;;;18.48;100.00
58239;BME280;44037;55.638;37.356;2023-05-25T10:24:05;99092.41;;;18.51;100.00
58239;BME280;44037;55.638;37.356;2023-05-25T10:26:39;99088.66;;;18.58;100.00
58239;BME280;44037;55.638;37.356;2023-05-25T10:29:08;99088.19;;;18.72;100.00
58239;BME280;44037;55.638;37.356;2023-05-25T10:31:37;99089.19;;;18.97;100.00
58239;BME280;44037;55.638;37.356;2023-05-25T10:34:04;99091.81;;;19.22;100.00
58239;BME280;44037;55.638;37.356;2023-05-25T10:36:33;99087.78;;;19.37;100.00
58239;BME280;44037;55.638;37.356;2023-05-25T10:39:01;99073.16;;;19.54;100.00
58239;BME280;44037;55.638;37.356;2023-05-25T10:41:28;99079.13;;;19.59;100.00
58239;BME280;44037;55.638;37.356;2023-05-25T10:43:56;99076.44;;;19.60;100.00
58239;BME280;44037;55.638;37.356;2023-05-25T10:46:23;99075.97;;;19.49;100.00
58239;BME280;44037;55.638;37.356;2023-05-25T10:48:51;99068.53;;;19.37;100.00
58239;BME280;44037;55.638;37.356;2023-05-25T10:51:18;99075.31;;;19.18;100.00
58239;BME280;44037;55.638;37.356;2023-05-25T10:53:58;99072.69;;;18.92;100.00
58239;BME280;44037;55.638;37.356;2023-05-25T10:56:26;99067.09;;;18.77;100.00
58239;BME280;44037;55.638;37.356;2023-05-25T10:58:53;99064.88;;;18.65;100.00
58239;BME280;44037;55.638;37.356;2023-05-25T11:01:21;99057.41;;;18.52;100.00
58239;BME280;44037;55.638;37.356;2023-05-25T11:03:56;99058.19;;;18.54;100.00
58239;BME280;44037;55.638;37.356;2023-05-25T11:09:25;99054.91;;;18.48;100.00
58239;BME280;44037;55.638;37.356;2023-05-25T11:12:05;99042.66;;;18.48;100.00
58239;BME280;44037;55.638;37.356;2023-05-25T11:14:33;99042.41;;;18.56;100.00
58239;BME280;44037;55.638;37.356;2023-05-25T11:17:04;99047.25;;;18.68;100.00
58239;BME280;44037;55.638;37.356;2023-05-25T11:19:40;99039.00;;;18.79;100.00
58239;BME280;44037;55.638;37.356;2023-05-25T11:22:15;99043.88;;;18.90;100.00
58239;BME280;44037;55.638;37.356;2023-05-25T11:24:45;99043.03;;;18.90;100.00
58239;BME280;44037;55.638;37.356;2023-05-25T11:27:13;99033.97;;;19.00;100.00
58239;BME280;44037;55.638;37.356;2023-05-25T11:29:40;99036.97;;;19.14;100.00
58239;BME280;44037;55.638;37.356;2023-05-25T11:32:11;99036.72;;;19.21;100.00
58239;BME280;44037;55.638;37.356;2023-05-25T11:34:40;99031.75;;;19.13;100.00
58239;BME280;44037;55.638;37.356;2023-05-25T11:37:12;99030.94;;;19.11;100.00
58239;BME280;44037;55.638;37.356;2023-05-25T11:39:47;99036.53;;;19.01;100.00
58239;BME280;44037;55.638;37.356;2023-05-25T11:42:14;99034.97;;;18.96;100.00
58239;BME280;44037;55.638;37.356;2023-05-25T11:44:43;99040.06;;;19.00;100.00
58239;BME280;44037;55.638;37.356;2023-05-25T11:47:11;99043.97;;;18.87;100.00
58239;BME280;44037;55.638;37.356;2023-05-25T11:49:40;99035.16;;;18.90;100.00
58239;BME280;44037;55.638;37.356;2023-05-25T11:52:11;99032.84;;;18.80;100.00
58239;BME280;44037;55.638;37.356;2023-05-25T11:54:39;99035.13;;;18.64;100.00
58239;BME280;44037;55.638;37.356;2023-05-25T11:57:15;99031.75;;;18.61;100.00
58239;BME280;44037;55.638;37.356;2023-05-25T11:59:48;99035.06;;;18.66;100.00
58239;BME280;44037;55.638;37.356;2023-05-25T12:02:16;99034.13;;;18.68;100.00
58239;BME280;44037;55.638;37.356;2023-05-25T12:04:52;99027.84;;;18.72;100.00
58239;BME280;44037;55.638;37.356;2023-05-25T12:07:20;99032.84;;;18.80;100.00
58239;BME280;44037;55.638;37.356;2023-05-25T12:09:47;99031.25;;;18.76;100.00
58239;BME280;44037;55.638;37.356;2023-05-25T12:12:16;99027.84;;;18.72;100.00
58239;BME280;44037;55.638;37.356;2023-05-25T12:14:47;99019.94;;;18.74;100.00
58239;BME280;44037;55.638;37.356;2023-05-25T12:17:15;99021.44;;;18.81;100.00
58239;BME280;44037;55.638;37.356;2023-05-25T12:19:42;99020.34;;;18.88;100.00
58239;BME280;44037;55.638;37.356;2023-05-25T12:22:10;99017.50;;;18.95;100.00
58239;BME280;44037;55.638;37.356;2023-05-25T12:24:38;99021.03;;;18.94;100.00
58239;BME280;44037;55.638;37.356;2023-05-25T12:27:19;99022.72;;;18.96;100.00
58239;BME280;44037;55.638;37.356;2023-05-25T12:29:47;99022.56;;;19.01;100.00
58239;BME280;44037;55.638;37.356;2023-05-25T12:32:17;99012.72;;;19.06;100.00
58239;BME280;44037;55.638;37.356;2023-05-25T12:34:44;99014.25;;;19.13;100.00
58239;BME280;44037;55.638;37.356;2023-05-25T12:37:17;99003.66;;;19.40;100.00
58239;BME280;44037;55.638;37.356;2023-05-25T12:39:44;99008.44;;;19.75;100.00
58239;BME280;44037;55.638;37.356;2023-05-25T12:42:13;99009.22;;;20.01;100.00
58239;BME280;44037;55.638;37.356;2023-05-25T12:44:43;99010.09;;;20.01;100.00
58239;BME280;44037;55.638;37.356;2023-05-25T12:47:13;99012.16;;;19.93;100.00
58239;BME280;44037;55.638;37.356;2023-05-25T12:49:41;99010.09;;;20.01;100.00
58239;BME280;44037;55.638;37.356;2023-05-25T12:52:10;99007.63;;;20.19;100.00